sensor_id;sensor_type;location;lat;lon;timestamp;P1;durP1;ratioP1;P2;durP2;ratioP2
17943;SDS011;9097;47.028;15.444;2023-05-07T00:00:17;2.85;;;1.75;;
17943;SDS011;9097;47.028;15.444;2023-05-07T00:03:20;3.28;;;2.03;;
17943;SDS011;9097;47.028;15.444;2023-05-07T00:06:24;3.45;;;2.08;;
17943;SDS011;9097;47.028;15.444;2023-05-07T00:09:29;3.67;;;1.90;;
17943;SDS011;9097;47.028;15.444;2023-05-07T00:12:31;2.70;;;2.28;;
17943;SDS011;9097;47.028;15.444;2023-05-07T00:15:34;2.65;;;2.22;;
17943;SDS011;9097;47.028;15.444;2023-05-07T00:18:36;3.38;;;2.47;;
17943;SDS011;9097;47.028;15.444;2023-05-07T00:21:40;4.43;;;2.13;;
17943;SDS011;9097;47.028;15.444;2023-05-07T00:24:43;8.23;;;2.55;;
17943;SDS011;9097;47.028;15.444;2023-05-07T00:27:45;2.35;;;1.88;;
17943;SDS011;9097;47.028;15.444;2023-05-07T00:30:48;5.57;;;2.05;;
17943;SDS011;9097;47.028;15.444;2023-05-07T00:33:50;4.43;;;2.13;;
17943;SDS011;9097;47.028;15.444;2023-05-07T00:36:54;2.92;;;2.42;;
17943;SDS011;9097;47.028;15.444;2023-05-07T00:39:57;2.85;;;2.15;;
17943;SDS011;9097;47.028;15.444;2023-05-07T00:42:59;2.72;;;2.47;;
17943;SDS011;9097;47.028;15.444;2023-05-07T00:46:02;2.60;;;2.20;;
17943;SDS011;9097;47.028;15.444;2023-05-07T00:49:05;4.82;;;2.40;;
17943;SDS011;9097;47.028;15.444;2023-05-07T00:52:10;4.55;;;2.30;;
17943;SDS011;9097;47.028;15.444;2023-05-07T00:55:13;2.53;;;1.90;;
17943;SDS011;9097;47.028;15.444;2023-05-07T00:58:16;2.78;;;1.80;;
17943;SDS011;9097;47.028;15.444;2023-05-07T01:01:18;3.00;;;1.83;;
17943;SDS011;9097;47.028;15.444;2023-05-07T01:04:21;1.67;;;1.17;;
17943;SDS011;9097;47.028;15.444;2023-05-07T01:07:25;4.18;;;2.42;;
17943;SDS011;9097;47.028;15.444;2023-05-07T01:10:28;2.10;;;1.52;;
17943;SDS011;9097;47.028;15.444;2023-05-07T01:13:31;2.72;;;2.03;;
17943;SDS011;9097;47.028;15.444;2023-05-07T01:16:34;1.67;;;1.55;;
17943;SDS011;9097;47.028;15.444;2023-05-07T01:19:36;3.05;;;1.80;;
17943;SDS011;9097;47.028;15.444;2023-05-07T01:22:40;4.03;;;1.80;;
17943;SDS011;9097;47.028;15.444;2023-05-07T01:25:43;1.90;;;1.40;;
17943;SDS011;9097;47.028;15.444;2023-05-07T01:28:45;1.75;;;1.40;;
17943;SDS011;9097;47.028;15.444;2023-05-07T01:31:48;3.40;;;1.90;;
17943;SDS011;9097;47.028;15.444;2023-05-07T01:34:51;2.28;;;1.60;;
17943;SDS011;9097;47.028;15.444;2023-05-07T01:37:56;4.30;;;2.10;;
17943;SDS011;9097;47.028;15.444;2023-05-07T01:40:59;2.90;;;1.55;;
17943;SDS011;9097;47.028;15.444;2023-05-07T01:44:01;2.40;;;1.60;;
17943;SDS011;9097;47.028;15.444;2023-05-07T01:47:05;2.30;;;1.70;;
17943;SDS011;9097;47.028;15.444;2023-05-07T01:50:08;1.58;;;1.33;;
17943;SDS011;9097;47.028;15.444;2023-05-07T01:53:12;2.13;;;1.92;;
17943;SDS011;9097;47.028;15.444;2023-05-07T01:56:15;2.45;;;2.08;;
17943;SDS011;9097;47.028;15.444;2023-05-07T01:59:17;4.37;;;2.40;;
17943;SDS011;9097;47.028;15.444;2023-05-07T02:02:20;1.70;;;1.53;;
17943;SDS011;9097;47.028;15.444;2023-05-07T02:05:22;3.13;;;2.05;;
17943;SDS011;9097;47.028;15.444;2023-05-07T02:08:26;2.07;;;1.87;;
17943;SDS011;9097;47.028;15.444;2023-05-07T02:11:29;2.00;;;1.23;;
17943;SDS011;9097;47.028;15.444;2023-05-07T02:14:31;3.70;;;2.28;;
17943;SDS011;9097;47.028;15.444;2023-05-07T02:17:34;2.10;;;1.63;;
17943;SDS011;9097;47.028;15.444;2023-05-07T02:20:37;1.77;;;1.65;;
17943;SDS011;9097;47.028;15.444;2023-05-07T02:23:41;3.17;;;2.30;;
17943;SDS011;9097;47.028;15.444;2023-05-07T02:26:43;7.67;;;2.60;;
17943;SDS011;9097;47.028;15.444;2023-05-07T02:29:46;3.13;;;2.60;;
17943;SDS011;9097;47.028;15.444;2023-05-07T02:32:48;2.37;;;1.80;;
17943;SDS011;9097;47.028;15.444;2023-05-07T02:35:51;3.40;;;2.50;;
17943;SDS011;9097;47.028;15.444;2023-05-07T02:38:55;6.23;;;3.10;;
17943;SDS011;9097;47.028;15.444;2023-05-07T02:41:57;3.93;;;2.20;;
17943;SDS011;9097;47.028;15.444;2023-05-07T02:45:00;3.27;;;2.20;;
17943;SDS011;9097;47.028;15.444;2023-05-07T02:48:03;7.33;;;2.30;;
17943;SDS011;9097;47.028;15.444;2023-05-07T02:51:05;2.40;;;2.07;;
17943;SDS011;9097;47.028;15.444;2023-05-07T02:54:09;4.13;;;2.30;;
17943;SDS011;9097;47.028;15.444;2023-05-07T02:57:12;4.20;;;2.07;;
17943;SDS011;9097;47.028;15.444;2023-05-07T03:00:15;3.47;;;2.50;;
17943;SDS011;9097;47.028;15.444;2023-05-07T03:03:18;5.10;;;2.93;;
17943;SDS011;9097;47.028;15.444;2023-05-07T03:06:21;3.37;;;2.13;;
17943;SDS011;9097;47.028;15.444;2023-05-07T03:09:24;4.17;;;2.90;;
17943;SDS011;9097;47.028;15.444;2023-05-07T03:12:27;4.90;;;2.43;;
17943;SDS011;9097;47.028;15.444;2023-05-07T03:15:29;4.37;;;2.40;;
17943;SDS011;9097;47.028;15.444;2023-05-07T03:18:33;4.20;;;2.63;;
17943;SDS011;9097;47.028;15.444;2023-05-07T03:21:35;4.00;;;2.30;;
17943;SDS011;9097;47.028;15.444;2023-05-07T03:24:39;2.97;;;2.20;;
17943;SDS011;9097;47.028;15.444;2023-05-07T03:27:42;3.33;;;2.13;;
17943;SDS011;9097;47.028;15.444;2023-05-07T03:30:44;5.53;;;2.10;;
17943;SDS011;9097;47.028;15.444;2023-05-07T03:33:50;2.10;;;1.83;;
17943;SDS011;9097;47.028;15.444;2023-05-07T03:36:53;3.13;;;2.53;;
17943;SDS011;9097;47.028;15.444;2023-05-07T03:39:57;3.60;;;2.03;;
17943;SDS011;9097;47.028;15.444;2023-05-07T03:43:00;2.43;;;1.60;;
17943;SDS011;9097;47.028;15.444;2023-05-07T03:46:02;2.40;;;2.07;;
17943;SDS011;9097;47.028;15.444;2023-05-07T03:49:05;3.27;;;1.87;;
17943;SDS011;9097;47.028;15.444;2023-05-07T03:52:07;2.77;;;2.03;;
17943;SDS011;9097;47.028;15.444;2023-05-07T03:55:11;3.23;;;2.37;;
17943;SDS011;9097;47.028;15.444;2023-05-07T03:58:14;4.90;;;2.87;;
17943;SDS011;9097;47.028;15.444;2023-05-07T04:01:16;3.23;;;2.67;;
17943;SDS011;9097;47.028;15.444;2023-05-07T04:04:19;4.73;;;2.40;;
17943;SDS011;9097;47.028;15.444;2023-05-07T04:07:22;4.37;;;2.53;;
17943;SDS011;9097;47.028;15.444;2023-05-07T04:10:26;2.33;;;2.13;;
17943;SDS011;9097;47.028;15.444;2023-05-07T04:13:29;3.30;;;2.50;;
17943;SDS011;9097;47.028;15.444;2023-05-07T04:16:32;4.17;;;2.47;;
17943;SDS011;9097;47.028;15.444;2023-05-07T04:19:34;3.23;;;1.97;;
17943;SDS011;9097;47.028;15.444;2023-05-07T04:22:37;2.53;;;2.27;;
17943;SDS011;9097;47.028;15.444;2023-05-07T04:25:41;6.20;;;3.27;;
17943;SDS011;9097;47.028;15.444;2023-05-07T04:28:43;4.40;;;2.20;;
17943;SDS011;9097;47.028;15.444;2023-05-07T04:31:46;5.93;;;2.17;;
17943;SDS011;9097;47.028;15.444;2023-05-07T04:34:48;2.83;;;2.47;;
17943;SDS011;9097;47.028;15.444;2023-05-07T04:37:51;3.10;;;2.67;;
17943;SDS011;9097;47.028;15.444;2023-05-07T04:40:55;4.63;;;2.67;;
17943;SDS011;9097;47.028;15.444;2023-05-07T04:43:57;3.50;;;2.13;;
17943;SDS011;9097;47.028;15.444;2023-05-07T04:47:00;4.60;;;2.17;;
17943;SDS011;9097;47.028;15.444;2023-05-07T04:50:02;2.57;;;1.80;;
17943;SDS011;9097;47.028;15.444;2023-05-07T04:53:05;3.43;;;2.30;;
17943;SDS011;9097;47.028;15.444;2023-05-07T04:56:09;3.43;;;2.70;;
17943;SDS011;9097;47.028;15.444;2023-05-07T04:59:11;6.07;;;2.73;;
17943;SDS011;9097;47.028;15.444;2023-05-07T05:02:14;4.50;;;3.37;;
17943;SDS011;9097;47.028;15.444;2023-05-07T05:05:17;4.10;;;3.00;;
17943;SDS011;9097;47.028;15.444;2023-05-07T05:08:19;4.53;;;2.10;;
17943;SDS011;9097;47.028;15.444;2023-05-07T05:11:23;4.20;;;2.23;;
17943;SDS011;9097;47.028;15.444;2023-05-07T05:14:25;2.73;;;1.57;;
17943;SDS011;9097;47.028;15.444;2023-05-07T05:17:28;2.57;;;2.00;;
17943;SDS011;9097;47.028;15.444;2023-05-07T05:20:30;1.80;;;1.50;;
17943;SDS011;9097;47.028;15.444;2023-05-07T05:23:33;2.40;;;1.63;;
17943;SDS011;9097;47.028;15.444;2023-05-07T05:26:37;2.93;;;2.07;;
17943;SDS011;9097;47.028;15.444;2023-05-07T05:29:39;1.63;;;1.30;;
17943;SDS011;9097;47.028;15.444;2023-05-07T05:32:42;1.40;;;1.07;;
17943;SDS011;9097;47.028;15.444;2023-05-07T05:35:44;1.42;;;1.15;;
17943;SDS011;9097;47.028;15.444;2023-05-07T05:38:47;1.67;;;1.20;;
17943;SDS011;9097;47.028;15.444;2023-05-07T05:41:51;0.85;;;0.85;;
17943;SDS011;9097;47.028;15.444;2023-05-07T05:44:53;2.40;;;1.30;;
17943;SDS011;9097;47.028;15.444;2023-05-07T05:47:56;1.53;;;0.97;;
17943;SDS011;9097;47.028;15.444;2023-05-07T05:50:59;2.57;;;1.00;;
17943;SDS011;9097;47.028;15.444;2023-05-07T05:54:02;1.42;;;1.33;;
17943;SDS011;9097;47.028;15.444;2023-05-07T05:57:06;3.97;;;0.90;;
17943;SDS011;9097;47.028;15.444;2023-05-07T06:00:09;1.88;;;1.08;;
17943;SDS011;9097;47.028;15.444;2023-05-07T06:03:12;1.23;;;1.00;;
17943;SDS011;9097;47.028;15.444;2023-05-07T06:06:14;1.38;;;1.13;;
17943;SDS011;9097;47.028;15.444;2023-05-07T06:09:17;2.85;;;1.00;;
17943;SDS011;9097;47.028;15.444;2023-05-07T06:12:21;1.75;;;1.05;;
17943;SDS011;9097;47.028;15.444;2023-05-07T06:15:24;1.35;;;0.90;;
17943;SDS011;9097;47.028;15.444;2023-05-07T06:18:27;1.33;;;0.98;;
17943;SDS011;9097;47.028;15.444;2023-05-07T06:21:29;5.45;;;0.98;;
17943;SDS011;9097;47.028;15.444;2023-05-07T06:24:32;0.90;;;0.90;;
17943;SDS011;9097;47.028;15.444;2023-05-07T06:27:36;1.00;;;0.70;;
17943;SDS011;9097;47.028;15.444;2023-05-07T06:30:39;1.70;;;0.90;;
17943;SDS011;9097;47.028;15.444;2023-05-07T06:33:43;0.95;;;0.85;;
17943;SDS011;9097;47.028;15.444;2023-05-07T06:36:45;1.33;;;0.90;;
17943;SDS011;9097;47.028;15.444;2023-05-07T06:39:47;2.22;;;1.30;;
17943;SDS011;9097;47.028;15.444;2023-05-07T06:42:51;1.20;;;0.88;;
17943;SDS011;9097;47.028;15.444;2023-05-07T06:45:54;0.50;;;0.47;;
17943;SDS011;9097;47.028;15.444;2023-05-07T06:48:56;0.50;;;0.50;;
17943;SDS011;9097;47.028;15.444;2023-05-07T06:51:59;1.00;;;0.88;;
17943;SDS011;9097;47.028;15.444;2023-05-07T06:55:01;2.35;;;1.30;;
17943;SDS011;9097;47.028;15.444;2023-05-07T06:58:05;1.80;;;1.30;;
17943;SDS011;9097;47.028;15.444;2023-05-07T07:01:08;4.82;;;0.70;;
17943;SDS011;9097;47.028;15.444;2023-05-07T07:04:10;0.75;;;0.75;;
17943;SDS011;9097;47.028;15.444;2023-05-07T07:07:13;0.70;;;0.70;;
17943;SDS011;9097;47.028;15.444;2023-05-07T07:10:16;1.88;;;1.00;;
17943;SDS011;9097;47.028;15.444;2023-05-07T07:13:20;0.90;;;0.75;;
17943;SDS011;9097;47.028;15.444;2023-05-07T07:16:23;2.00;;;1.40;;
17943;SDS011;9097;47.028;15.444;2023-05-07T07:19:25;1.95;;;1.02;;
17943;SDS011;9097;47.028;15.444;2023-05-07T07:22:28;0.80;;;0.68;;
17943;SDS011;9097;47.028;15.444;2023-05-07T07:25:31;0.85;;;0.85;;
17943;SDS011;9097;47.028;15.444;2023-05-07T07:28:36;0.80;;;0.65;;
17943;SDS011;9097;47.028;15.444;2023-05-07T07:31:44;1.33;;;1.23;;
17943;SDS011;9097;47.028;15.444;2023-05-07T07:34:46;1.15;;;0.80;;
17943;SDS011;9097;47.028;15.444;2023-05-07T07:37:48;1.45;;;1.13;;
17943;SDS011;9097;47.028;15.444;2023-05-07T07:40:51;1.67;;;1.00;;
17943;SDS011;9097;47.028;15.444;2023-05-07T07:43:55;0.75;;;0.68;;
17943;SDS011;9097;47.028;15.444;2023-05-07T07:46:57;2.60;;;0.82;;
17943;SDS011;9097;47.028;15.444;2023-05-07T07:50:00;1.88;;;1.05;;
17943;SDS011;9097;47.028;15.444;2023-05-07T07:53:02;0.88;;;0.70;;
17943;SDS011;9097;47.028;15.444;2023-05-07T07:56:05;2.50;;;1.48;;
17943;SDS011;9097;47.028;15.444;2023-05-07T07:59:09;1.10;;;1.00;;
17943;SDS011;9097;47.028;15.444;2023-05-07T08:02:11;1.27;;;1.17;;
17943;SDS011;9097;47.028;15.444;2023-05-07T08:05:14;2.70;;;1.48;;
17943;SDS011;9097;47.028;15.444;2023-05-07T08:08:16;1.70;;;1.00;;
17943;SDS011;9097;47.028;15.444;2023-05-07T08:11:19;0.80;;;0.70;;
17943;SDS011;9097;47.028;15.444;2023-05-07T08:14:23;2.25;;;0.90;;
17943;SDS011;9097;47.028;15.444;2023-05-07T08:17:25;1.50;;;1.20;;
17943;SDS011;9097;47.028;15.444;2023-05-07T08:20:28;1.38;;;0.90;;
17943;SDS011;9097;47.028;15.444;2023-05-07T08:23:31;1.83;;;1.42;;
17943;SDS011;9097;47.028;15.444;2023-05-07T08:26:34;1.38;;;1.10;;
17943;SDS011;9097;47.028;15.444;2023-05-07T08:29:42;2.78;;;1.30;;
17943;SDS011;9097;47.028;15.444;2023-05-07T08:32:47;1.40;;;1.27;;
17943;SDS011;9097;47.028;15.444;2023-05-07T08:35:50;1.08;;;0.95;;
17943;SDS011;9097;47.028;15.444;2023-05-07T08:38:52;1.67;;;1.00;;
17943;SDS011;9097;47.028;15.444;2023-05-07T08:41:55;1.48;;;0.93;;
17943;SDS011;9097;47.028;15.444;2023-05-07T08:45:00;2.25;;;1.10;;
17943;SDS011;9097;47.028;15.444;2023-05-07T08:48:03;1.20;;;1.02;;
17943;SDS011;9097;47.028;15.444;2023-05-07T08:51:08;1.90;;;1.20;;
17943;SDS011;9097;47.028;15.444;2023-05-07T08:54:10;1.20;;;1.10;;
17943;SDS011;9097;47.028;15.444;2023-05-07T08:57:13;2.53;;;1.63;;
17943;SDS011;9097;47.028;15.444;2023-05-07T09:00:17;1.50;;;1.33;;
17943;SDS011;9097;47.028;15.444;2023-05-07T09:03:20;1.30;;;1.10;;
17943;SDS011;9097;47.028;15.444;2023-05-07T09:06:22;1.20;;;1.10;;
17943;SDS011;9097;47.028;15.444;2023-05-07T09:09:25;1.67;;;1.10;;
17943;SDS011;9097;47.028;15.444;2023-05-07T09:12:28;1.52;;;1.30;;
17943;SDS011;9097;47.028;15.444;2023-05-07T09:15:32;2.15;;;0.90;;
17943;SDS011;9097;47.028;15.444;2023-05-07T09:18:35;1.80;;;1.27;;
17943;SDS011;9097;47.028;15.444;2023-05-07T09:21:37;1.58;;;1.45;;
17943;SDS011;9097;47.028;15.444;2023-05-07T09:24:40;1.02;;;0.90;;
17943;SDS011;9097;47.028;15.444;2023-05-07T09:27:42;1.63;;;1.17;;
17943;SDS011;9097;47.028;15.444;2023-05-07T09:30:47;1.00;;;0.90;;
17943;SDS011;9097;47.028;15.444;2023-05-07T09:33:49;0.98;;;0.88;;
17943;SDS011;9097;47.028;15.444;2023-05-07T09:36:53;4.78;;;1.30;;
17943;SDS011;9097;47.028;15.444;2023-05-07T09:39:57;0.70;;;0.70;;
17943;SDS011;9097;47.028;15.444;2023-05-07T09:43:08;1.60;;;0.90;;
17943;SDS011;9097;47.028;15.444;2023-05-07T09:46:13;1.77;;;1.23;;
17943;SDS011;9097;47.028;15.444;2023-05-07T09:49:19;1.52;;;1.15;;
17943;SDS011;9097;47.028;15.444;2023-05-07T09:52:23;1.52;;;1.00;;
17943;SDS011;9097;47.028;15.444;2023-05-07T09:55:28;1.45;;;1.05;;
17943;SDS011;9097;47.028;15.444;2023-05-07T09:58:31;1.42;;;1.10;;
17943;SDS011;9097;47.028;15.444;2023-05-07T10:01:37;1.67;;;1.00;;
17943;SDS011;9097;47.028;15.444;2023-05-07T10:04:40;1.27;;;0.88;;
17943;SDS011;9097;47.028;15.444;2023-05-07T10:07:43;1.88;;;1.10;;
17943;SDS011;9097;47.028;15.444;2023-05-07T10:10:46;0.88;;;0.75;;
17943;SDS011;9097;47.028;15.444;2023-05-07T10:13:49;2.00;;;1.17;;
17943;SDS011;9097;47.028;15.444;2023-05-07T10:16:53;0.82;;;0.68;;
17943;SDS011;9097;47.028;15.444;2023-05-07T10:19:56;2.05;;;0.93;;
17943;SDS011;9097;47.028;15.444;2023-05-07T10:22:59;1.17;;;1.00;;
17943;SDS011;9097;47.028;15.444;2023-05-07T10:26:02;0.80;;;0.57;;
17943;SDS011;9097;47.028;15.444;2023-05-07T10:29:07;0.93;;;0.63;;
17943;SDS011;9097;47.028;15.444;2023-05-07T10:32:30;1.35;;;1.05;;
17943;SDS011;9097;47.028;15.444;2023-05-07T10:35:37;1.33;;;0.95;;
17943;SDS011;9097;47.028;15.444;2023-05-07T10:38:40;1.85;;;0.82;;
17943;SDS011;9097;47.028;15.444;2023-05-07T10:41:43;1.00;;;0.90;;
17943;SDS011;9097;47.028;15.444;2023-05-07T10:44:45;2.80;;;1.98;;
17943;SDS011;9097;47.028;15.444;2023-05-07T10:51:20;0.82;;;0.70;;
17943;SDS011;9097;47.028;15.444;2023-05-07T10:54:23;1.42;;;1.00;;
17943;SDS011;9097;47.028;15.444;2023-05-07T10:57:35;1.95;;;0.88;;
17943;SDS011;9097;47.028;15.444;2023-05-07T11:00:41;0.68;;;0.52;;
17943;SDS011;9097;47.028;15.444;2023-05-07T11:10:24;2.58;;;1.10;;
17943;SDS011;9097;47.028;15.444;2023-05-07T11:13:47;2.95;;;0.85;;
17943;SDS011;9097;47.028;15.444;2023-05-07T11:16:50;1.55;;;1.05;;
17943;SDS011;9097;47.028;15.444;2023-05-07T11:20:03;1.60;;;0.82;;
17943;SDS011;9097;47.028;15.444;2023-05-07T11:23:06;1.77;;;1.00;;
17943;SDS011;9097;47.028;15.444;2023-05-07T11:26:11;3.65;;;1.10;;
17943;SDS011;9097;47.028;15.444;2023-05-07T11:29:17;2.75;;;1.23;;
17943;SDS011;9097;47.028;15.444;2023-05-07T11:32:22;1.08;;;0.98;;
17943;SDS011;9097;47.028;15.444;2023-05-07T11:35:24;2.10;;;0.57;;
17943;SDS011;9097;47.028;15.444;2023-05-07T11:38:28;0.70;;;0.70;;
17943;SDS011;9097;47.028;15.444;2023-05-07T11:41:35;2.45;;;0.77;;
17943;SDS011;9097;47.028;15.444;2023-05-07T11:44:42;1.17;;;0.90;;
17943;SDS011;9097;47.028;15.444;2023-05-07T11:47:46;0.93;;;0.80;;
17943;SDS011;9097;47.028;15.444;2023-05-07T11:50:51;4.57;;;1.40;;
17943;SDS011;9097;47.028;15.444;2023-05-07T11:53:55;0.50;;;0.50;;
17943;SDS011;9097;47.028;15.444;2023-05-07T11:56:59;0.77;;;0.60;;
17943;SDS011;9097;47.028;15.444;2023-05-07T12:00:02;0.55;;;0.55;;
17943;SDS011;9097;47.028;15.444;2023-05-07T12:03:06;1.08;;;0.73;;
17943;SDS011;9097;47.028;15.444;2023-05-07T12:06:08;1.67;;;0.98;;
17943;SDS011;9097;47.028;15.444;2023-05-07T12:09:11;0.85;;;0.85;;
17943;SDS011;9097;47.028;15.444;2023-05-07T12:12:15;1.45;;;0.73;;
17943;SDS011;9097;47.028;15.444;2023-05-07T12:15:20;1.35;;;0.82;;
17943;SDS011;9097;47.028;15.444;2023-05-07T12:18:24;0.73;;;0.73;;
17943;SDS011;9097;47.028;15.444;2023-05-07T12:21:28;0.60;;;0.60;;
17943;SDS011;9097;47.028;15.444;2023-05-07T12:24:41;1.17;;;1.02;;
17943;SDS011;9097;47.028;15.444;2023-05-07T12:27:45;1.08;;;0.98;;
17943;SDS011;9097;47.028;15.444;2023-05-07T12:30:53;0.80;;;0.80;;
17943;SDS011;9097;47.028;15.444;2023-05-07T12:33:56;1.13;;;0.70;;
17943;SDS011;9097;47.028;15.444;2023-05-07T12:37:01;0.65;;;0.65;;
17943;SDS011;9097;47.028;15.444;2023-05-07T12:40:05;1.38;;;1.27;;
17943;SDS011;9097;47.028;15.444;2023-05-07T12:43:09;2.85;;;0.75;;
17943;SDS011;9097;47.028;15.444;2023-05-07T12:46:17;1.67;;;1.15;;
17943;SDS011;9097;47.028;15.444;2023-05-07T12:49:20;1.38;;;0.90;;
17943;SDS011;9097;47.028;15.444;2023-05-07T12:52:22;1.77;;;1.00;;
17943;SDS011;9097;47.028;15.444;2023-05-07T12:55:25;1.25;;;1.15;;
17943;SDS011;9097;47.028;15.444;2023-05-07T12:58:30;1.35;;;1.02;;
17943;SDS011;9097;47.028;15.444;2023-05-07T13:01:33;2.05;;;1.30;;
17943;SDS011;9097;47.028;15.444;2023-05-07T13:04:36;1.25;;;1.05;;
17943;SDS011;9097;47.028;15.444;2023-05-07T13:07:38;1.00;;;0.90;;
17943;SDS011;9097;47.028;15.444;2023-05-07T13:10:41;0.40;;;0.40;;
17943;SDS011;9097;47.028;15.444;2023-05-07T13:13:45;1.40;;;0.90;;
17943;SDS011;9097;47.028;15.444;2023-05-07T13:16:48;1.30;;;1.20;;
17943;SDS011;9097;47.028;15.444;2023-05-07T13:19:50;1.58;;;1.10;;
17943;SDS011;9097;47.028;15.444;2023-05-07T13:22:53;0.93;;;0.93;;
17943;SDS011;9097;47.028;15.444;2023-05-07T13:25:55;2.15;;;1.02;;
17943;SDS011;9097;47.028;15.444;2023-05-07T13:29:00;1.67;;;0.95;;
17943;SDS011;9097;47.028;15.444;2023-05-07T13:32:02;2.40;;;0.88;;
17943;SDS011;9097;47.028;15.444;2023-05-07T13:35:05;1.42;;;0.90;;
17943;SDS011;9097;47.028;15.444;2023-05-07T13:38:09;2.58;;;0.80;;
17943;SDS011;9097;47.028;15.444;2023-05-07T13:41:14;0.70;;;0.70;;
17943;SDS011;9097;47.028;15.444;2023-05-07T13:44:23;1.23;;;1.00;;
17943;SDS011;9097;47.028;15.444;2023-05-07T13:47:27;3.15;;;0.95;;
17943;SDS011;9097;47.028;15.444;2023-05-07T13:50:35;1.08;;;0.98;;
17943;SDS011;9097;47.028;15.444;2023-05-07T13:53:39;2.67;;;1.50;;
17943;SDS011;9097;47.028;15.444;2023-05-07T13:56:44;7.13;;;1.48;;
17943;SDS011;9097;47.028;15.444;2023-05-07T13:59:52;1.27;;;1.17;;
17943;SDS011;9097;47.028;15.444;2023-05-07T14:03:00;2.20;;;1.50;;
17943;SDS011;9097;47.028;15.444;2023-05-07T14:06:03;2.17;;;1.98;;
17943;SDS011;9097;47.028;15.444;2023-05-07T14:09:07;3.03;;;2.03;;
17943;SDS011;9097;47.028;15.444;2023-05-07T14:12:12;2.75;;;1.60;;
17943;SDS011;9097;47.028;15.444;2023-05-07T14:15:17;2.92;;;1.70;;
17943;SDS011;9097;47.028;15.444;2023-05-07T14:18:19;3.20;;;1.75;;
17943;SDS011;9097;47.028;15.444;2023-05-07T14:21:22;2.38;;;2.03;;
17943;SDS011;9097;47.028;15.444;2023-05-07T14:24:25;2.65;;;1.88;;
17943;SDS011;9097;47.028;15.444;2023-05-07T14:27:31;2.83;;;1.92;;
17943;SDS011;9097;47.028;15.444;2023-05-07T14:30:35;6.03;;;2.92;;
17943;SDS011;9097;47.028;15.444;2023-05-07T14:33:38;2.88;;;2.55;;
17943;SDS011;9097;47.028;15.444;2023-05-07T14:36:42;2.38;;;1.67;;
17943;SDS011;9097;47.028;15.444;2023-05-07T14:39:45;2.15;;;1.95;;
17943;SDS011;9097;47.028;15.444;2023-05-07T14:42:48;2.20;;;1.83;;
17943;SDS011;9097;47.028;15.444;2023-05-07T14:45:53;3.25;;;1.70;;
17943;SDS011;9097;47.028;15.444;2023-05-07T14:48:57;4.57;;;1.88;;
17943;SDS011;9097;47.028;15.444;2023-05-07T14:52:00;3.15;;;2.00;;
17943;SDS011;9097;47.028;15.444;2023-05-07T14:55:05;1.80;;;1.48;;
17943;SDS011;9097;47.028;15.444;2023-05-07T14:58:08;2.85;;;2.22;;
17943;SDS011;9097;47.028;15.444;2023-05-07T15:01:13;2.30;;;1.92;;
17943;SDS011;9097;47.028;15.444;2023-05-07T15:04:16;4.53;;;2.72;;
17943;SDS011;9097;47.028;15.444;2023-05-07T15:07:20;3.33;;;1.75;;
17943;SDS011;9097;47.028;15.444;2023-05-07T15:10:24;4.07;;;2.15;;
17943;SDS011;9097;47.028;15.444;2023-05-07T15:13:28;3.92;;;1.95;;
17943;SDS011;9097;47.028;15.444;2023-05-07T15:16:33;2.55;;;2.17;;
17943;SDS011;9097;47.028;15.444;2023-05-07T15:19:36;3.25;;;2.00;;
17943;SDS011;9097;47.028;15.444;2023-05-07T15:22:38;2.42;;;1.73;;
17943;SDS011;9097;47.028;15.444;2023-05-07T15:25:41;7.00;;;3.05;;
17943;SDS011;9097;47.028;15.444;2023-05-07T15:28:44;3.42;;;2.03;;
17943;SDS011;9097;47.028;15.444;2023-05-07T15:31:49;3.45;;;2.28;;
17943;SDS011;9097;47.028;15.444;2023-05-07T15:34:52;3.47;;;2.17;;
17943;SDS011;9097;47.028;15.444;2023-05-07T15:37:55;5.38;;;2.88;;
17943;SDS011;9097;47.028;15.444;2023-05-07T15:40:59;4.20;;;3.38;;
17943;SDS011;9097;47.028;15.444;2023-05-07T15:44:01;4.68;;;2.67;;
17943;SDS011;9097;47.028;15.444;2023-05-07T15:47:06;4.68;;;2.25;;
17943;SDS011;9097;47.028;15.444;2023-05-07T15:50:09;4.95;;;2.97;;
17943;SDS011;9097;47.028;15.444;2023-05-07T15:53:13;4.18;;;2.83;;
17943;SDS011;9097;47.028;15.444;2023-05-07T15:56:17;4.78;;;2.63;;
17943;SDS011;9097;47.028;15.444;2023-05-07T15:59:20;3.28;;;2.42;;
17943;SDS011;9097;47.028;15.444;2023-05-07T16:02:25;2.15;;;1.77;;
17943;SDS011;9097;47.028;15.444;2023-05-07T16:05:28;3.95;;;2.50;;
17943;SDS011;9097;47.028;15.444;2023-05-07T16:08:31;2.72;;;2.03;;
17943;SDS011;9097;47.028;15.444;2023-05-07T16:11:35;6.55;;;1.95;;
17943;SDS011;9097;47.028;15.444;2023-05-07T16:14:37;3.38;;;2.38;;
17943;SDS011;9097;47.028;15.444;2023-05-07T16:17:42;2.38;;;2.08;;
17943;SDS011;9097;47.028;15.444;2023-05-07T16:20:49;4.43;;;2.78;;
17943;SDS011;9097;47.028;15.444;2023-05-07T16:23:53;2.78;;;2.20;;
17943;SDS011;9097;47.028;15.444;2023-05-07T16:26:56;2.60;;;1.95;;
17943;SDS011;9097;47.028;15.444;2023-05-07T16:30:00;6.80;;;2.75;;
17943;SDS011;9097;47.028;15.444;2023-05-07T16:33:05;8.07;;;2.80;;
17943;SDS011;9097;47.028;15.444;2023-05-07T16:36:08;3.00;;;2.05;;
17943;SDS011;9097;47.028;15.444;2023-05-07T16:39:11;3.35;;;2.58;;
17943;SDS011;9097;47.028;15.444;2023-05-07T16:42:13;4.60;;;2.85;;
17943;SDS011;9097;47.028;15.444;2023-05-07T16:45:17;4.25;;;2.92;;
17943;SDS011;9097;47.028;15.444;2023-05-07T16:48:23;4.57;;;2.90;;
17943;SDS011;9097;47.028;15.444;2023-05-07T16:51:26;5.00;;;2.60;;
17943;SDS011;9097;47.028;15.444;2023-05-07T16:54:28;6.70;;;3.33;;
17943;SDS011;9097;47.028;15.444;2023-05-07T16:57:31;3.75;;;2.17;;
17943;SDS011;9097;47.028;15.444;2023-05-07T17:00:33;6.18;;;3.45;;
17943;SDS011;9097;47.028;15.444;2023-05-07T17:03:37;6.03;;;3.72;;
17943;SDS011;9097;47.028;15.444;2023-05-07T17:06:40;6.95;;;3.95;;
17943;SDS011;9097;47.028;15.444;2023-05-07T17:09:42;4.93;;;3.53;;
17943;SDS011;9097;47.028;15.444;2023-05-07T17:12:45;4.40;;;2.53;;
17943;SDS011;9097;47.028;15.444;2023-05-07T17:15:48;6.72;;;3.33;;
17943;SDS011;9097;47.028;15.444;2023-05-07T17:18:53;6.65;;;3.30;;
17943;SDS011;9097;47.028;15.444;2023-05-07T17:21:56;4.32;;;3.17;;
17943;SDS011;9097;47.028;15.444;2023-05-07T17:24:58;5.43;;;3.03;;
17943;SDS011;9097;47.028;15.444;2023-05-07T17:28:03;5.60;;;2.97;;
17943;SDS011;9097;47.028;15.444;2023-05-07T17:31:06;4.40;;;3.53;;
17943;SDS011;9097;47.028;15.444;2023-05-07T17:34:12;10.00;;;3.10;;
17943;SDS011;9097;47.028;15.444;2023-05-07T17:37:15;3.60;;;2.55;;
17943;SDS011;9097;47.028;15.444;2023-05-07T17:40:18;6.15;;;2.58;;
17943;SDS011;9097;47.028;15.444;2023-05-07T17:43:22;6.82;;;3.20;;
17943;SDS011;9097;47.028;15.444;2023-05-07T17:46:26;3.58;;;2.17;;
17943;SDS011;9097;47.028;15.444;2023-05-07T17:49:31;7.15;;;3.00;;
17943;SDS011;9097;47.028;15.444;2023-05-07T17:52:34;6.18;;;3.35;;
17943;SDS011;9097;47.028;15.444;2023-05-07T17:55:39;3.78;;;3.17;;
17943;SDS011;9097;47.028;15.444;2023-05-07T17:58:43;7.65;;;3.58;;
17943;SDS011;9097;47.028;15.444;2023-05-07T18:01:46;4.78;;;3.03;;
17943;SDS011;9097;47.028;15.444;2023-05-07T18:04:51;3.30;;;2.13;;
17943;SDS011;9097;47.028;15.444;2023-05-07T18:07:53;4.85;;;2.70;;
17943;SDS011;9097;47.028;15.444;2023-05-07T18:10:57;5.78;;;3.05;;
17943;SDS011;9097;47.028;15.444;2023-05-07T18:13:59;5.05;;;3.67;;
17943;SDS011;9097;47.028;15.444;2023-05-07T18:17:05;6.15;;;4.00;;
17943;SDS011;9097;47.028;15.444;2023-05-07T18:20:09;9.18;;;4.25;;
17943;SDS011;9097;47.028;15.444;2023-05-07T18:23:12;4.85;;;3.25;;
17943;SDS011;9097;47.028;15.444;2023-05-07T18:26:16;4.18;;;3.03;;
17943;SDS011;9097;47.028;15.444;2023-05-07T18:29:21;5.88;;;3.28;;
17943;SDS011;9097;47.028;15.444;2023-05-07T18:32:24;4.55;;;3.13;;
17943;SDS011;9097;47.028;15.444;2023-05-07T18:35:29;5.68;;;3.50;;